< < Back
Terminal Aerodrome Forecast


Current Version              Previous Versions:   1  2  3  4  5  6  7  8  9  

Terminal Aerodrome Forecast

880
FTUS42 KFFC 261120
TAFMCN
TAF
KMCN 261120Z 2612/2712 24003KT P6SM SCT100
     FM261600 22006KT P6SM SCT040
      TEMPO 2619/2623 4SM -TSRA BKN035CB
     FM270200 20003KT P6SM FEW050 SCT250=



Latest METAR

438
SAUS80 KWBC 270900 CCA
MTRMCN
METAR KMCN 270853Z AUTO 00000KT 10SM CLR 24/22 A3004 RMK AO2 SLP166
T02440222 58006 TSNO


USA.gov is the U.S. government's official web portal to all federal, state and local government web resources and services.